Spears Grove, Pennsylvania
Current Conditions -  °F | °C
As of 9:53 PM on Sunday 23 Nov 2014 (Local Time) from KAOO Reporting Station
Light Rain Light Rain  
Wind Chill: 44°   Ceiling: 1600
Heat Index: 49°   Visibility: 10mi
Dew Point: 43°   Wind: 14mph
Humidity: 80%   Direction: 150°SSE
Pressure: 29.84"   Gusts: 22mph
Location:  40.3617°N, 77.6745°W
Report Text: KAOO 240253Z AUTO 15012G19KT 10SM -RA OVC016 09/06 A2984 RMK AO2 RAB12 SLP107 P0000 60000 T00940061 56030
Loading
Personal Weather Stations






























Interactive Weather Map New forecast layout! Learn more

10-Day Weather Forecast

Advertisements
Track Severe Weather on mobile